• Join FlightAware (Why Join?)
  • Login
  • US Flag 
07:07AM EDT


 

Airport Tracker/Info


-or-


 

Live Flight TrackerFlight Track Log ✈ EJA658 ✈ 01-May-2013 ✈ KPWM - KHPN

Flight Track Log - Related Links

Times and Time Zones

All times are in EDT time to prevent confusion due to time zone crossing. See the EJA658 flight status page for this flight to view local times or setup timezone preferences in your user account.

Time Position Orientation Groundspeed Altitude Reporting Facility
EDT Latitude Longitude Course Direction KTS MPH feet Rate Location/Type
07:05AM 43.6458 -70.4375 247° West 211 243 6,500  Level Boston Center
07:06AM 43.6283 -70.5183 253° West 224 258 10,500 3,960 Climbing Boston Center
07:07AM 43.6053 -70.6281 254° West 268 308 14,500 3,480 Climbing Boston Center
07:08AM 43.5839 -70.7289 254° West 296 341 17,500 2,880 Climbing Boston Center
07:09AM 43.5567 -70.8700 255° West 305 351 20,900 2,880 Climbing Boston Center
07:10AM 43.4026 -71.0250 247° West  Level FlightAware Approximate
07:10AM 43.5311 -70.9939 254° West 325 374 23,900  Level Boston Center
07:11AM 43.4997 -71.1378 253° West 359 413 24,000  Climbing Boston Center
07:12AM 43.4617 -71.2989 252° West 395 455 24,000  Level Boston Center
07:13AM 43.4297 -71.4422 253° West 400 460 24,000  Level Boston Center
07:14AM 43.3975 -71.5914 253° West 400 460 24,000  Level Boston Center
07:15AM 43.3653 -71.7375 253° West 400 460 24,000  Level Boston Center
07:16AM 43.3328 -71.8864 253° West 405 466 24,000  Level Boston Center
07:17AM 43.2978 -72.0378 252° West 405 466 24,000  Level Boston Center
07:18AM 43.2650 -72.1864 253° West 405 466 24,000  Level Boston Center
07:19AM 43.2319 -72.3375 253° West 405 466 24,000  Level Boston Center
07:20AM 43.1944 -72.4914 252° West 411 473 24,000  Level Boston Center
07:21AM 43.1589 -72.6422 252° West 417 480 24,000  Level Boston Center
07:22AM 43.1272 -72.7758 252° West 417 480 24,000  Level Boston Center
07:23AM 43.0914 -72.9264 252° West 417 480 24,000  Level Boston Center
07:24AM 43.0569 -73.0964 255° West 422 486 24,000  Level Boston Center
07:25AM 43.0272 -73.2156 251° West 422 486 24,000 -60 Level Boston Center
07:26AM 42.9675 -73.3878 245° Southwest 422 486 23,900 -480 Descending Boston Center
07:27AM 42.9017 -73.5144 235° Southwest 420 483 23,100 -900 Descending Boston Center
07:28AM 42.8114 -73.6033 216° Southwest 410 472 22,200 -960 Descending Boston Center
07:29AM 42.6961 -73.6464 195° South 404 465 21,200 -1,020 Descending Boston Center
07:30AM 42.5872 -73.6894 196° South 410 472 20,200 -1,080 Descending Boston Center
07:31AM 42.4786 -73.7294 195° South 410 472 19,100 -1,200 Descending Boston Center
07:32AM 42.3822 -73.7611 194° South 397 457 17,900 -1,020 Descending Boston Center
07:33AM 42.2692 -73.8064 197° South 397 457 17,100 -960 Descending Boston Center
07:34AM 42.1733 -73.8128 183° South 387 445 16,000 -1,200 Descending Boston Center
07:35AM 42.0647 -73.8161 181° South 376 433 14,700 -960 Descending Boston Center
07:36AM 41.9753 -73.8169 180° South 365 420 14,100 -300 Descending Boston Center
07:37AM 41.8647 -73.8200 181° South 365 420 14,100 -180 Level Boston Center
07:38AM 41.7769 -73.8292 184° South 365 420 13,800 -1,500 Descending Boston Center
07:39AM 41.6706 -73.8408 185° South 360 414 11,100 -2,460 Descending Boston Center
07:40AM 41.5833 -73.8500 184° South 303 349 9,100 -1,980 Descending New York TRACON
07:41AM 41.5167 -73.8500 180° South 289 333 7,500 -1,680 Descending New York TRACON
07:42AM 41.4500 -73.8667 191° South 267 307 6,000 -1,200 Descending New York TRACON
07:43AM 41.3667 -73.8667 180° South 279 321 5,100 -900 Descending New York TRACON
07:44AM 41.3167 -73.8500 166° South 257 296 4,400 -840 Descending New York TRACON
07:45AM 41.2833 -73.7667 118° Southeast 255 293 3,600 -780 Descending New York TRACON
07:46AM 41.2500 -73.7000 124° Southeast 254 292 3,100 -300 Descending New York TRACON
07:47AM 41.2000 -73.6500 143° Southeast 240 276 3,100 -60 Level New York TRACON
07:48AM 41.1500 -73.6000 143° Southeast 221 254 3,000  Descending New York TRACON
07:49AM 41.1000 -73.5833 166° South 203 234 3,100  Climbing New York TRACON
07:50AM 41.0500 -73.5833 180° South 198 228 3,100 -180 Level New York TRACON
07:51AM 41.0000 -73.6167 207° Southwest 198 228 2,800 -540 Descending New York TRACON
07:52AM 41.0000 -73.6667 270° West 175 201 2,100 -960 Descending New York TRACON
07:53AM 41.0333 -73.6833 339° North 125 144 1,000 -1,140 Descending New York TRACON